createdAt,value
2018-03-18T19:03:32.306Z,69.18
2018-03-18T19:06:36.470Z,68.73
2018-03-18T19:09:39.896Z,68.10
2018-03-18T19:12:43.304Z,68.91
2018-03-18T19:15:46.744Z,68.67
2018-03-18T19:18:50.416Z,69.05
2018-03-18T19:21:53.985Z,69.47
2018-03-18T19:24:57.440Z,69.60
2018-03-18T19:28:00.881Z,70.07
2018-03-18T19:31:04.345Z,70.48
2018-03-18T19:34:07.810Z,70.13
2018-03-18T19:37:12.289Z,68.61
2018-03-18T19:40:15.755Z,68.94
2018-03-18T19:43:19.964Z,69.94
2018-03-18T19:46:24.139Z,69.99
2018-03-18T19:49:27.595Z,70.69
2018-03-18T19:52:31.964Z,69.15
2018-03-18T19:55:35.366Z,68.14
2018-03-18T19:58:38.792Z,69.18
2018-03-18T20:01:42.437Z,68.77
2018-03-18T20:04:45.957Z,68.56
2018-03-18T20:07:49.353Z,68.88
2018-03-18T20:10:52.903Z,69.46
2018-03-18T20:13:56.368Z,69.32
2018-03-18T20:16:59.778Z,69.18
2018-03-18T20:20:03.144Z,69.57
2018-03-18T20:23:06.542Z,69.89
2018-03-18T20:26:10.243Z,70.12
2018-03-18T20:29:13.630Z,70.55
2018-03-18T20:32:17.781Z,70.74
2018-03-18T20:35:21.210Z,70.10
2018-03-18T20:38:24.630Z,70.60
2018-03-18T20:41:28.054Z,71.12
2018-03-18T20:44:32.237Z,70.93
2018-03-18T20:47:35.681Z,71.62
2018-03-18T20:50:39.092Z,71.69
2018-03-18T20:53:42.974Z,71.84
2018-03-18T20:56:46.979Z,71.44
2018-03-18T20:59:51.330Z,70.66
2018-03-18T21:02:54.931Z,71.09
2018-03-18T21:05:58.385Z,71.62
2018-03-18T21:09:01.813Z,71.31
2018-03-18T21:12:05.983Z,72.03
2018-03-18T21:15:11.076Z,71.79
2018-03-18T21:18:15.266Z,72.02
2018-03-18T21:21:19.315Z,71.80
2018-03-18T21:24:23.333Z,71.04
2018-03-18T21:27:28.043Z,71.98
2018-03-18T21:30:32.488Z,72.46
2018-03-18T21:33:35.956Z,72.48
2018-03-18T21:36:40.347Z,72.47
2018-03-18T21:39:45.050Z,72.73
2018-03-18T21:42:49.449Z,72.87
2018-03-18T21:45:53.695Z,72.90
2018-03-18T21:48:57.146Z,73.55
2018-03-18T21:52:02.311Z,73.45
2018-03-18T21:55:07.846Z,73.07
2018-03-18T21:58:11.625Z,72.72
2018-03-18T22:01:15.374Z,73.08
2018-03-18T22:04:19.659Z,73.50
2018-03-18T22:07:23.406Z,74.43
2018-03-18T22:10:26.790Z,73.48
2018-03-18T22:13:30.151Z,73.57
2018-03-18T22:16:33.554Z,74.05
2018-03-18T22:19:36.915Z,73.45
2018-03-18T22:22:40.586Z,73.36
2018-03-18T22:25:45.454Z,74.33
2018-03-18T22:28:49.586Z,74.12
2018-03-18T22:31:53.158Z,74.15
2018-03-18T22:34:57.291Z,73.74
2018-03-18T22:38:01.634Z,74.25
2018-03-18T22:41:05.085Z,74.52
2018-03-18T22:44:09.346Z,74.34
2018-03-18T22:47:12.723Z,74.54
2018-03-18T22:50:16.976Z,75.00
2018-03-18T22:53:20.517Z,75.22
2018-03-18T22:56:23.870Z,75.91
2018-03-18T22:59:27.342Z,76.54
2018-03-18T23:02:30.717Z,76.36
2018-03-18T23:05:34.162Z,76.25
2018-03-18T23:08:37.519Z,75.78
2018-03-18T23:11:42.450Z,75.77
2018-03-18T23:14:45.864Z,76.59
2018-03-18T23:17:49.955Z,76.96
2018-03-18T23:20:53.330Z,76.75
2018-03-18T23:23:56.981Z,76.33
2018-03-18T23:27:01.124Z,76.92
2018-03-18T23:30:05.380Z,76.64
2018-03-18T23:33:08.867Z,76.18
2018-03-18T23:36:12.207Z,76.56
2018-03-18T23:39:15.566Z,76.76
2018-03-18T23:42:18.951Z,77.41
2018-03-18T23:45:22.437Z,77.33
2018-03-18T23:48:26.738Z,76.37
2018-03-18T23:51:30.155Z,77.12
2018-03-18T23:54:34.295Z,77.24
2018-03-18T23:57:37.667Z,77.80
